Time;durP1;ratioP1;P1;durP2;ratioP2;P2;SDS_P1;SDS_P2;PMS_P1;PMS_P2;Temp;Humidity;BMP_temperature;BMP_pressure;BME280_temperature;BME280_humidity;BME280_pressure;Samples;Min_cycle;Max_cycle;Signal;HPM_P1;HPM_P2
2022/05/02 00:01:34;;;;;;;27.20;10.72;;;;;;;11.31;50.19;99420.70;1817618;79;20955;-36
2022/05/02 00:04:00;;;;;;;30.80;10.45;;;;;;;11.29;50.60;99422.57;1817823;79;20971;-36
2022/05/02 00:06:26;;;;;;;22.32;10.53;;;;;;;11.27;50.37;99421.81;1817531;79;21007;-35
2022/05/02 00:08:51;;;;;;;30.77;10.43;;;;;;;11.23;50.27;99421.61;1817676;79;20947;-40
2022/05/02 00:11:17;;;;;;;26.37;10.20;;;;;;;11.18;50.53;99421.85;1794924;79;21475;-38
2022/05/02 00:13:43;;;;;;;24.43;11.22;;;;;;;11.13;50.48;99422.13;1817549;79;20975;-40
2022/05/02 00:16:09;;;;;;;30.62;10.23;;;;;;;11.06;51.03;99414.19;1817699;79;20951;-38
2022/05/02 00:18:35;;;;;;;41.80;10.63;;;;;;;11.06;50.67;99415.50;1817523;79;20975;-39
2022/05/02 00:21:01;;;;;;;24.75;10.43;;;;;;;10.99;51.49;99418.09;1817571;79;20963;-38
2022/05/02 00:23:28;;;;;;;24.50;11.57;;;;;;;10.95;51.69;99416.53;1817468;79;20952;-40
2022/05/02 00:25:54;;;;;;;25.57;10.88;;;;;;;10.94;51.88;99417.48;1817674;79;21083;-38
2022/05/02 00:28:20;;;;;;;23.02;10.38;;;;;;;10.86;52.46;99412.65;1817520;79;21018;-36
2022/05/02 00:30:45;;;;;;;21.70;10.85;;;;;;;10.87;52.36;99413.49;1817522;79;20995;-39
2022/05/02 00:33:12;;;;;;;26.05;10.93;;;;;;;10.84;51.93;99411.02;1817549;79;21013;-39
2022/05/02 00:35:38;;;;;;;24.75;10.60;;;;;;;10.81;52.25;99408.10;1817541;79;20966;-37
2022/05/02 00:38:05;;;;;;;19.87;10.20;;;;;;;10.79;53.05;99406.47;1817759;79;20971;-38
2022/05/02 00:40:32;;;;;;;22.25;10.80;;;;;;;10.75;53.24;99407.97;1817657;79;21452;-37
2022/05/02 00:42:58;;;;;;;24.98;11.57;;;;;;;10.73;52.25;99404.58;1817580;79;21409;-37
2022/05/02 00:45:24;;;;;;;22.95;11.70;;;;;;;10.68;52.93;99401.81;1817507;79;20956;-38
2022/05/02 00:47:55;;;;;;;22.73;12.30;;;;;;;10.67;52.37;99410.15;1814031;78;21050;-36
2022/05/02 00:50:34;;;;;;;29.98;13.28;;;;;;;10.62;52.39;99412.64;1806897;79;20972;-40
2022/05/02 00:53:01;;;;;;;25.62;12.70;;;;;;;10.56;52.55;99408.09;1807301;79;21513;-39
2022/05/02 00:55:28;;;;;;;;;;;;;;;10.54;52.54;99415.22;1809972;79;20980;-38
2022/05/02 00:57:54;;;;;;;26.70;13.38;;;;;;;10.50;54.47;99414.16;1807521;79;20105;-38
2022/05/02 01:00:19;;;;;;;24.10;12.28;;;;;;;10.51;52.68;99415.41;1807255;79;21015;-37
2022/05/02 01:02:45;;;;;;;32.65;13.13;;;;;;;10.53;52.51;99412.66;1807267;79;20973;-38
2022/05/02 01:05:11;;;;;;;26.50;12.58;;;;;;;10.49;52.55;99411.14;1807328;79;20964;-36
2022/05/02 01:07:39;;;;;;;28.12;12.30;;;;;;;10.44;53.53;99404.83;1807305;79;21011;-39
2022/05/02 01:10:05;;;;;;;26.75;12.65;;;;;;;10.39;54.07;99412.10;1807307;79;21496;-37
2022/05/02 01:12:31;;;;;;;28.55;12.73;;;;;;;10.36;53.71;99411.78;1807223;79;20971;-40
2022/05/02 01:14:57;;;;;;;27.27;12.60;;;;;;;10.33;54.00;99405.39;1807316;79;21018;-38
2022/05/02 01:17:24;;;;;;;24.98;12.50;;;;;;;10.30;54.28;99409.45;1807309;79;20967;-38
2022/05/02 01:19:50;;;;;;;29.10;11.97;;;;;;;10.26;54.97;99410.55;1807328;79;21487;-39
2022/05/02 01:22:17;;;;;;;28.32;13.35;;;;;;;10.24;55.05;99405.84;1807138;79;20968;-38
2022/05/02 01:24:48;;;;;;;32.45;12.47;;;;;;;10.21;55.16;99405.98;1807109;79;21059;-40
2022/05/02 01:27:15;;;;;;;28.87;12.82;;;;;;;10.21;55.20;99407.30;1807232;79;21022;-37
2022/05/02 01:29:43;;;;;;;25.48;11.80;;;;;;;10.19;55.31;99402.59;1807411;79;21003;-40
2022/05/02 01:32:12;;;;;;;25.15;12.05;;;;;;;10.17;55.17;99412.34;1807249;79;21466;-39
2022/05/02 01:34:42;;;;;;;28.12;11.57;;;;;;;10.16;55.14;99400.11;1807237;79;20976;-40
2022/05/02 01:37:10;;;;;;;26.10;12.23;;;;;;;10.13;55.10;99403.77;1807242;79;20967;-38
2022/05/02 01:39:36;;;;;;;30.70;12.53;;;;;;;10.07;55.53;99402.75;1807279;79;20972;-37
2022/05/02 01:42:07;;;;;;;23.10;11.57;;;;;;;10.05;55.59;99398.04;1807408;79;20972;-39
2022/05/02 01:44:36;;;;;;;27.95;11.68;;;;;;;10.04;55.85;99399.42;1807241;79;21034;-39
2022/05/02 01:47:03;;;;;;;27.02;12.53;;;;;;;10.00;55.98;99400.05;1807253;79;21011;-40
2022/05/02 01:49:29;;;;;;;29.57;12.75;;;;;;;9.98;56.39;99394.87;1816203;79;21038;-39
2022/05/02 01:51:57;;;;;;;29.23;12.25;;;;;;;9.95;55.97;99400.30;1817433;79;20958;-39
2022/05/02 01:54:24;;;;;;;29.30;13.48;;;;;;;9.93;55.86;99398.22;1817396;79;21524;-36
2022/05/02 01:56:49;;;;;;;34.80;13.90;;;;;;;9.95;54.88;99398.11;1817521;79;21006;-39
2022/05/02 01:59:15;;;;;;;30.02;13.90;;;;;;;9.84;55.10;99398.69;1817443;79;21002;-38
2022/05/02 02:01:41;;;;;;;29.92;13.78;;;;;;;9.77;55.68;99398.61;1817440;79;21006;-40
2022/05/02 02:06:52;;;;;;;27.90;13.30;;;;;;;9.76;55.83;99391.64;1817550;79;20955;-35
2022/05/02 02:09:18;;;;;;;36.75;14.15;;;;;;;9.78;56.63;99393.73;1817533;79;20975;-38
2022/05/02 02:11:44;;;;;;;29.23;13.72;;;;;;;9.74;56.35;99397.44;1817566;79;21469;-41
2022/05/02 02:14:10;;;;;;;26.87;13.48;;;;;;;9.78;55.84;99398.51;1817501;79;21488;-36
2022/05/02 02:16:36;;;;;;;28.30;12.53;;;;;;;9.76;55.58;99399.52;1817434;79;20975;-37
2022/05/02 02:19:01;;;;;;;24.30;13.85;;;;;;;9.72;55.89;99396.67;1817409;79;20973;-38
2022/05/02 02:21:27;;;;;;;26.20;13.03;;;;;;;9.73;55.56;99399.23;1817502;79;21010;-35
2022/05/02 02:23:54;;;;;;;25.35;12.23;;;;;;;9.74;55.70;99400.91;1817418;79;20966;-38
2022/05/02 02:26:20;;;;;;;27.00;12.33;;;;;;;9.74;56.30;99394.81;1817506;79;20940;-38
2022/05/02 02:28:45;;;;;;;25.02;12.05;;;;;;;9.71;55.66;99387.08;1817493;79;20966;-37
2022/05/02 02:31:11;;;;;;;25.70;11.88;;;;;;;9.71;55.92;99393.64;1817458;79;21810;-39
2022/05/02 02:33:37;;;;;;;24.87;12.47;;;;;;;9.73;56.03;99391.79;1817396;79;20971;-37
2022/05/02 02:36:04;;;;;;;23.20;12.40;;;;;;;9.74;56.18;99384.31;1817425;79;20971;-36
2022/05/02 02:38:30;;;;;;;22.13;11.85;;;;;;;9.70;56.47;99391.97;1817694;79;20971;-38
2022/05/02 02:43:28;;;;;;;20.10;11.03;;;;;;;9.76;55.70;99387.23;1800585;79;22562;-37
2022/05/02 02:45:53;;;;;;;19.32;9.93;;;;;;;9.73;55.65;99383.91;1761506;80;21011;-35
2022/05/02 02:48:19;;;;;;;23.85;9.70;;;;;;;9.74;54.96;99383.00;1761778;81;20975;-38
2022/05/02 02:50:45;;;;;;;21.62;11.45;;;;;;;9.75;55.25;99385.99;1761763;80;20975;-37
2022/05/02 02:53:11;;;;;;;20.05;10.28;;;;;;;9.76;55.37;99387.70;1761760;80;20960;-37
2022/05/02 02:55:36;;;;;;;20.02;9.75;;;;;;;9.78;54.83;99387.16;1761811;81;20967;-40
2022/05/02 02:58:02;;;;;;;17.70;10.28;;;;;;;9.77;54.39;99386.79;1761802;81;20987;-38
2022/05/02 03:00:28;;;;;;;20.57;9.63;;;;;;;9.76;55.10;99385.08;1761721;81;21051;-39
2022/05/02 03:02:54;;;;;;;21.97;9.03;;;;;;;9.76;55.38;99385.08;1761731;81;20987;-38
2022/05/02 03:08:05;;;;;;;17.45;9.05;;;;;;;9.73;55.15;99382.16;1761944;80;21013;-40
2022/05/02 03:10:31;;;;;;;24.75;9.58;;;;;;;9.73;54.84;99381.28;1762023;80;20979;-37
2022/05/02 03:12:57;;;;;;;16.65;8.53;;;;;;;9.74;54.50;99377.74;1761759;80;20991;-41
2022/05/02 03:15:23;;;;;;;14.70;9.25;;;;;;;9.76;54.08;99378.52;1761850;81;20987;-41
2022/05/02 03:17:49;;;;;;;16.75;9.03;;;;;;;9.74;53.99;99381.69;1761806;81;21456;-40
2022/05/02 03:20:15;;;;;;;18.40;8.60;;;;;;;9.71;54.33;99382.67;1761819;81;21484;-40
2022/05/02 03:22:40;;;;;;;16.27;7.85;;;;;;;9.71;54.44;99385.30;1761703;80;20988;-41
2022/05/02 03:25:07;;;;;;;20.08;8.00;;;;;;;9.71;54.42;99379.20;1761747;80;20996;-37
2022/05/02 03:27:33;;;;;;;17.27;8.25;;;;;;;9.68;54.39;99385.47;1761959;81;21563;-39
2022/05/02 03:29:59;;;;;;;17.75;8.08;;;;;;;9.69;54.76;99386.31;1762031;81;20995;-37
2022/05/02 03:32:24;;;;;;;15.28;7.78;;;;;;;9.67;55.31;99385.55;1761748;81;20991;-44
2022/05/02 03:34:50;;;;;;;12.85;8.00;;;;;;;9.66;54.57;99385.14;1761730;81;21022;-39
2022/05/02 03:37:16;;;;;;;20.85;8.43;;;;;;;9.63;55.29;99387.95;1761890;80;20999;-41
2022/05/02 03:39:42;;;;;;;23.65;8.73;;;;;;;9.61;56.21;99387.55;1761747;81;21039;-39
2022/05/02 03:42:08;;;;;;;20.17;9.18;;;;;;;9.59;56.25;99380.21;1756907;80;21020;-39
2022/05/02 03:44:34;;;;;;;18.48;8.90;;;;;;;9.63;55.47;99381.38;1748727;81;21044;-40
2022/05/02 03:47:00;;;;;;;15.75;8.65;;;;;;;9.66;55.29;99383.83;1748680;81;21524;-38
2022/05/02 03:49:26;;;;;;;18.37;8.48;;;;;;;9.66;55.72;99381.20;1748694;81;21528;-41
2022/05/02 03:51:51;;;;;;;21.57;8.63;;;;;;;9.68;56.15;99379.34;1748660;82;20992;-40
2022/05/02 03:54:17;;;;;;;21.52;8.83;;;;;;;9.70;56.00;99384.09;1748243;81;20995;-38
2022/05/02 03:56:43;;;;;;;24.65;9.38;;;;;;;9.70;55.76;99377.05;1748072;81;20995;-40
2022/05/02 03:59:09;;;;;;;17.98;8.90;;;;;;;9.74;55.59;99381.69;1748089;81;20995;-41
2022/05/02 04:01:40;;;;;;;27.27;9.00;;;;;;;9.73;56.00;99385.22;1748029;81;20976;-35
2022/05/02 04:04:06;;;;;;;37.17;8.88;;;;;;;9.73;56.44;99380.84;1748052;81;21437;-40
2022/05/02 04:06:32;;;;;;;24.18;8.88;;;;;;;9.72;56.41;99379.60;1748370;81;21814;-36
2022/05/02 04:08:58;;;;;;;28.07;10.28;;;;;;;9.70;56.49;99381.46;1748093;81;20979;-38
2022/05/02 04:11:24;;;;;;;20.82;9.10;;;;;;;9.69;56.56;99380.59;1748096;81;20987;-37
2022/05/02 04:13:50;;;;;;;27.48;9.13;;;;;;;9.71;56.53;99380.05;1748066;81;20992;-38
2022/05/02 04:16:15;;;;;;;23.35;10.05;;;;;;;9.75;56.44;99383.36;1748243;82;21027;-36
2022/05/02 04:18:41;;;;;;;21.40;9.05;;;;;;;9.77;56.61;99381.54;1748103;82;20984;-39
2022/05/02 04:21:07;;;;;;;25.62;9.05;;;;;;;9.82;56.07;99387.38;1748234;81;21067;-41
2022/05/02 04:23:33;;;;;;;22.62;8.38;;;;;;;9.89;55.76;99382.20;1748064;81;20960;-39
2022/05/02 04:25:59;;;;;;;26.30;8.00;;;;;;;10.00;55.47;99389.54;1748080;82;21030;-40
2022/05/02 04:28:25;;;;;;;15.90;7.50;;;;;;;10.11;54.71;99387.67;1748149;81;21532;-40
2022/05/02 04:30:50;;;;;;;24.82;8.45;;;;;;;10.16;54.31;99390.44;1748215;81;21524;-39
2022/05/02 04:33:16;;;;;;;24.25;7.60;;;;;;;10.23;54.06;99393.61;1748126;81;21528;-37
2022/05/02 04:35:42;;;;;;;12.10;6.92;;;;;;;10.29;54.16;99391.97;1748111;81;21476;-38
2022/05/02 04:38:08;;;;;;;16.05;7.10;;;;;;;10.34;53.89;99395.71;1748051;82;21028;-41
2022/05/02 04:40:34;;;;;;;17.25;7.47;;;;;;;10.38;53.97;99390.67;1748409;81;20988;-37
2022/05/02 04:42:59;;;;;;;18.23;7.78;;;;;;;10.41;54.06;99391.83;1756126;80;21008;-38
2022/05/02 04:45:25;;;;;;;16.32;7.87;;;;;;;10.48;53.48;99393.68;1761422;81;20980;-41
2022/05/02 04:47:51;;;;;;;18.55;8.43;;;;;;;10.51;53.14;99396.12;1761409;80;20983;-40
2022/05/02 04:50:17;;;;;;;14.47;7.85;;;;;;;10.54;52.94;99401.23;1761391;80;20986;-38
2022/05/02 04:52:42;;;;;;;13.48;7.60;;;;;;;10.59;52.98;99400.52;1761376;80;20994;-41
2022/05/02 04:55:09;;;;;;;11.20;7.15;;;;;;;10.64;52.62;99390.61;1761362;81;21038;-35
2022/05/02 04:57:34;;;;;;;14.93;7.05;;;;;;;10.70;52.11;99392.90;1761386;81;21495;-35
2022/05/02 05:00:01;;;;;;;13.85;7.22;;;;;;;10.75;51.87;99401.39;1761459;81;20979;-39
2022/05/02 05:02:27;;;;;;;17.82;7.35;;;;;;;10.82;51.61;99398.42;1761374;81;20963;-35
2022/05/02 05:04:52;;;;;;;14.20;7.53;;;;;;;10.87;51.40;99395.91;1761347;81;20979;-40
2022/05/02 05:07:18;;;;;;;15.18;7.42;;;;;;;10.95;51.12;99400.30;1761412;81;21035;-38
2022/05/02 05:09:44;;;;;;;15.18;7.80;;;;;;;10.99;51.10;99397.04;1761507;80;21520;-38
2022/05/02 05:12:42;;;;;;;15.90;7.25;;;;;;;11.05;50.81;99399.31;1761434;81;21019;-40
2022/05/02 05:18:21;;;;;;;13.53;6.50;;;;;;;11.18;50.68;99401.27;1761335;81;20956;-36
2022/05/02 05:21:02;;;;;;;14.95;7.28;;;;;;;11.23;50.55;99405.81;1755020;81;21445;-37
2022/05/02 05:23:45;;;;;;;16.37;7.60;;;;;;;11.28;50.27;99401.98;1761364;81;20991;-39
2022/05/02 05:26:15;;;;;;;16.12;8.00;;;;;;;11.37;50.15;99404.58;1761400;81;21468;-39
2022/05/02 05:28:56;;;;;;;23.07;7.60;;;;;;;11.43;50.10;99399.42;1761479;81;20983;-38
2022/05/02 05:31:46;;;;;;;17.82;6.90;;;;;;;11.48;50.20;99394.75;1761447;81;21489;-36
2022/05/02 05:34:48;;;;;;;13.62;6.87;;;;;;;11.52;49.97;99393.63;1761375;81;20963;-37
2022/05/02 05:37:45;;;;;;;14.93;7.33;;;;;;;11.57;50.24;99394.66;1761549;81;21453;-40
2022/05/02 05:40:32;;;;;;;14.03;7.12;;;;;;;11.63;50.27;99396.48;1761646;81;20991;-35
2022/05/02 05:43:30;;;;;;;16.87;8.08;;;;;;;11.68;50.36;99390.96;1754921;81;21075;-38
2022/05/02 05:46:23;;;;;;;15.93;6.90;;;;;;;11.72;49.96;99394.62;1747703;81;20952;-39
2022/05/02 05:49:09;;;;;;;17.15;7.17;;;;;;;11.79;50.10;99392.49;1748158;81;20964;-39
2022/05/02 05:51:48;;;;;;;16.85;6.55;;;;;;;11.86;49.75;99391.64;1748312;81;20956;-39
2022/05/02 05:55:04;;;;;;;14.20;6.37;;;;;;;11.95;49.47;99391.61;1747809;81;20937;-36
2022/05/02 05:57:53;;;;;;;13.15;6.40;;;;;;;12.00;48.84;99398.30;1721913;81;21481;-37
2022/05/02 06:00:19;;;;;;;15.30;6.55;;;;;;;12.12;48.46;99396.73;1739019;81;21011;-38
2022/05/02 06:03:13;;;;;;;15.58;6.83;;;;;;;12.19;48.47;99396.74;1748070;81;20945;-36
2022/05/02 06:05:47;;;;;;;12.75;6.72;;;;;;;12.23;48.32;99394.29;1748017;82;21473;-36
2022/05/02 06:08:21;;;;;;;12.25;5.62;;;;;;;12.31;48.35;99403.53;1748101;81;20983;-37
2022/05/02 06:10:51;;;;;;;9.53;5.15;;;;;;;12.36;47.93;99394.88;1748029;81;20983;-38
2022/05/02 06:13:19;;;;;;;9.68;6.10;;;;;;;12.42;47.68;99394.00;1748020;81;21469;-39
2022/05/02 06:18:38;;;;;;;38.98;6.78;;;;;;;12.53;47.15;99393.83;1748007;82;20137;-39
2022/05/02 06:21:08;;;;;;;166.77;12.10;;;;;;;12.60;46.87;99393.83;1748064;82;20992;-40
2022/05/02 06:23:42;;;;;;;22.35;5.95;;;;;;;12.65;47.04;99389.95;1748018;81;21011;-36
2022/05/02 06:26:10;;;;;;;14.43;6.03;;;;;;;12.74;46.55;99395.62;1748034;81;21035;-37
2022/05/02 06:28:45;;;;;;;11.33;5.72;;;;;;;12.81;46.57;99392.48;1748099;81;21011;-37
2022/05/02 06:31:24;;;;;;;14.00;6.03;;;;;;;12.88;46.21;99395.59;1747981;82;20964;-36
2022/05/02 06:33:51;;;;;;;14.90;5.58;;;;;;;13.01;45.65;99400.95;1748030;81;20960;-39
2022/05/02 06:36:56;;;;;;;20.20;6.35;;;;;;;13.10;45.71;99395.08;1748208;81;21489;-38
2022/05/02 06:39:33;;;;;;;15.30;5.58;;;;;;;13.16;45.70;99394.67;1748076;82;20960;-39
2022/05/02 06:42:04;;;;;;;15.50;6.15;;;;;;;13.26;45.21;99396.23;1748106;81;20984;-39
2022/05/02 06:45:17;;;;;;;10.32;5.58;;;;;;;13.33;44.82;99397.56;1747518;81;21015;-38
2022/05/02 06:48:11;;;;;;;8.80;5.85;;;;;;;13.41;44.79;99401.89;1747875;81;20948;-39
2022/05/02 06:50:39;;;;;;;14.10;5.80;;;;;;;13.51;44.32;99402.12;1747800;81;20976;-35
2022/05/02 06:53:50;;;;;;;28.02;6.40;;;;;;;13.63;44.35;99405.28;1748037;81;20960;-37
2022/05/02 06:56:39;;;;;;;15.40;5.92;;;;;;;13.72;44.27;99405.64;1747970;82;21456;-39
2022/05/02 06:59:42;;;;;;;14.95;6.30;;;;;;;13.79;43.72;99403.80;1748043;81;20960;-36
2022/05/02 07:02:39;;;;;;;14.63;5.83;;;;;;;13.88;43.49;99406.30;1747576;81;20991;-35
2022/05/02 07:05:23;;;;;;;;;;;;;;;13.94;43.19;99401.91;1750481;81;20976;-38
2022/05/02 07:08:06;;;;;;;8.63;4.90;;;;;;;14.00;42.44;99405.94;1748015;82;20174;-38
2022/05/02 07:10:34;;;;;;;12.50;5.28;;;;;;;14.08;42.11;99402.31;1747943;81;20960;-40
2022/05/02 07:13:34;;;;;;;10.23;5.53;;;;;;;14.14;41.15;99403.69;1747995;81;20980;-38
2022/05/02 07:16:22;;;;;;;13.50;5.72;;;;;;;14.19;41.38;99409.03;1748017;82;20979;-38
2022/05/02 07:19:25;;;;;;;10.23;4.97;;;;;;;14.27;41.16;99402.38;1748001;81;20988;-39
2022/05/02 07:22:03;;;;;;;13.70;5.33;;;;;;;14.38;41.02;99403.80;1748046;81;20972;-38
2022/05/02 07:24:50;;;;;;;16.50;5.50;;;;;;;14.48;40.88;99404.86;1747974;81;21120;-40
2022/05/02 07:27:42;;;;;;;15.00;5.25;;;;;;;14.61;40.90;99404.01;1736860;82;21493;-41
2022/05/02 07:30:09;;;;;;;21.12;6.05;;;;;;;14.74;40.56;99400.89;1748146;81;20985;-40
2022/05/02 07:32:36;;;;;;;11.35;4.97;;;;;;;14.85;40.17;99398.31;1748264;81;21026;-37
2022/05/02 07:35:03;;;;;;;11.35;5.35;;;;;;;14.94;40.00;99400.30;1748132;81;21039;-36
2022/05/02 07:37:32;;;;;;;10.98;5.70;;;;;;;15.00;40.10;99395.05;1748252;81;20960;-37
2022/05/02 07:39:58;;;;;;;9.38;4.75;;;;;;;15.08;40.02;99395.80;1748194;81;20984;-36
2022/05/02 07:42:27;;;;;;;13.98;5.25;;;;;;;15.18;39.99;99394.19;1748180;80;20992;-38
2022/05/02 07:44:56;;;;;;;8.83;4.87;;;;;;;15.28;39.57;99389.05;1761510;81;20995;-36
2022/05/02 07:47:28;;;;;;;12.18;5.03;;;;;;;15.34;39.06;99388.14;1761550;80;20979;-38
2022/05/02 07:49:56;;;;;;;9.33;3.85;;;;;;;15.44;39.12;99389.62;1761476;81;21460;-39
2022/05/02 07:52:26;;;;;;;11.22;4.47;;;;;;;15.50;38.54;99389.19;1761411;81;21007;-40
2022/05/02 07:54:55;;;;;;;11.08;5.47;;;;;;;15.55;38.16;99390.15;1761439;81;20959;-40
2022/05/02 07:57:23;;;;;;;8.23;4.50;;;;;;;15.55;38.11;99393.67;1761538;81;21477;-39
2022/05/02 07:59:52;;;;;;;15.05;6.03;;;;;;;15.64;37.96;99392.11;1761418;81;20983;-39
2022/05/02 08:02:19;;;;;;;13.08;5.90;;;;;;;15.71;37.57;99387.20;1760926;80;21505;-40
2022/05/02 08:04:45;;;;;;;14.07;5.53;;;;;;;15.81;37.71;99388.70;1761530;81;21014;-40
2022/05/02 08:07:15;;;;;;;16.37;5.53;;;;;;;15.95;37.54;99388.51;1761409;81;20988;-39
2022/05/02 08:10:15;;;;;;;13.45;4.85;;;;;;;16.03;37.22;99386.63;1761059;80;20980;-41
2022/05/02 08:13:04;;;;;;;7.90;4.67;;;;;;;16.12;36.78;99382.77;1735493;81;21080;-39
2022/05/02 08:15:42;;;;;;;11.65;4.70;;;;;;;16.27;36.67;99387.86;1760760;81;21303;-38
2022/05/02 08:18:33;;;;;;;7.20;4.05;;;;;;;16.35;36.54;99383.28;1761371;80;21030;-38
2022/05/02 08:21:20;;;;;;;6.95;4.47;;;;;;;16.51;36.09;99385.09;1761362;81;20956;-38
2022/05/02 08:27:54;;;;;;;8.68;4.33;;;;;;;16.79;34.64;99379.79;1761397;81;20987;-38
2022/05/02 08:30:23;;;;;;;7.53;4.97;;;;;;;16.98;34.82;99383.16;1760920;81;21014;-38
2022/05/02 08:33:08;;;;;;;6.40;3.87;;;;;;;17.13;34.67;99380.23;1761380;81;20987;-38
2022/05/02 08:35:58;;;;;;;9.00;3.90;;;;;;;17.30;34.46;99376.19;1761193;81;20990;-40
2022/05/02 08:38:45;;;;;;;8.88;4.62;;;;;;;17.47;33.90;99378.32;1761247;81;21507;-39
2022/05/02 08:41:52;;;;;;;10.90;4.42;;;;;;;17.52;33.21;99380.12;1761495;80;20987;-38
2022/05/02 08:45:04;;;;;;;6.95;4.08;;;;;;;17.59;33.57;99382.63;1732218;81;21035;-36
2022/05/02 08:48:20;;;;;;;6.45;4.22;;;;;;;17.76;32.89;99377.72;1761510;81;21495;-40
2022/05/02 08:50:54;;;;;;;11.45;4.22;;;;;;;18.11;32.77;99374.75;1761418;80;21492;-39
2022/05/02 08:53:38;;;;;;;11.43;4.37;;;;;;;18.39;32.38;99379.89;1748747;81;20987;-39
2022/05/02 08:56:30;;;;;;;7.20;3.87;;;;;;;18.55;32.08;99379.88;1761465;81;20995;-38
2022/05/02 08:59:20;;;;;;;7.95;3.98;;;;;;;18.64;31.75;99375.08;1761230;81;20983;-36
2022/05/02 09:02:15;;;;;;;10.25;4.60;;;;;;;18.91;32.02;99374.99;1761302;80;21830;-41
2022/05/02 09:05:07;;;;;;;6.62;4.40;;;;;;;19.29;31.18;99374.22;1761289;81;20972;-39
2022/05/02 09:08:01;;;;;;;12.50;5.08;;;;;;;19.63;31.14;99370.30;1738028;81;21026;-39
2022/05/02 09:10:44;;;;;;;6.47;4.60;;;;;;;19.92;30.17;99364.48;1761498;81;21504;-38
2022/05/02 09:13:24;;;;;;;7.05;4.70;;;;;;;20.35;30.14;99361.43;1761384;81;20979;-40
2022/05/02 09:16:23;;;;;;;8.30;4.58;;;;;;;20.90;30.04;99357.47;1741525;81;20975;-40
2022/05/02 09:19:09;;;;;;;12.33;4.62;;;;;;;21.26;29.59;99357.02;1761191;81;20955;-40
2022/05/02 09:21:59;;;;;;;7.67;5.23;;;;;;;21.32;29.48;99355.59;1761153;80;21023;-34
2022/05/02 09:25:04;;;;;;;7.90;4.30;;;;;;;21.54;29.30;99357.00;1761327;81;21283;-38
2022/05/02 09:27:50;;;;;;;6.53;4.45;;;;;;;21.74;28.31;99356.33;1761296;81;21042;-37
2022/05/02 09:30:27;;;;;;;10.25;4.42;;;;;;;21.98;27.69;99345.47;1760912;81;20991;-40
2022/05/02 09:33:45;;;;;;;8.68;4.72;;;;;;;21.68;27.01;99359.61;1761369;81;20975;-40
2022/05/02 09:36:29;;;;;;;5.92;4.35;;;;;;;21.53;27.65;99352.63;1761364;80;21034;-38
2022/05/02 09:39:14;;;;;;;8.60;4.55;;;;;;;21.12;26.67;99347.34;1761071;81;21010;-38
2022/05/02 09:42:05;;;;;;;11.85;4.60;;;;;;;20.77;26.80;99343.63;1761388;81;20956;-41
2022/05/02 09:51:18;;;;;;;6.92;3.85;;;;;;;21.15;27.09;99343.05;1761228;81;20995;-41
2022/05/02 09:56:37;;;;;;;6.28;3.60;;;;;;;21.89;26.95;99341.88;1761327;81;20955;-39
2022/05/02 09:56:48;;;;;;;6.50;4.35;;;;;;;21.98;25.29;99338.77;1758031;81;21003;-38
2022/05/02 09:59:30;;;;;;;5.75;3.60;;;;;;;22.84;26.11;99339.22;1761177;81;20956;-39
2022/05/02 10:02:05;;;;;;;6.58;4.30;;;;;;;23.68;23.24;99330.64;1761237;81;21112;-39
2022/05/02 10:05:06;;;;;;;5.47;3.62;;;;;;;24.63;25.04;99329.15;1761422;81;21022;-38
2022/05/02 10:07:44;;;;;;;9.00;4.15;;;;;;;25.52;24.18;99321.56;1761049;81;20990;-38
2022/05/02 10:10:15;;;;;;;4.90;3.15;;;;;;;25.97;22.89;99328.45;1761427;81;20987;-39
2022/05/02 10:12:55;;;;;;;4.35;3.47;;;;;;;26.98;22.31;99320.70;1759898;81;21010;-40
2022/05/02 10:15:33;;;;;;;4.85;3.20;;;;;;;26.59;18.19;99328.59;1760727;81;20999;-38
2022/05/02 10:18:27;;;;;;;4.50;3.62;;;;;;;27.75;20.59;99319.18;1761202;81;20978;-39
2022/05/02 10:21:16;;;;;;;5.22;3.20;;;;;;;28.13;20.39;99314.28;1735013;81;20952;-37
2022/05/02 10:24:10;;;;;;;4.65;2.62;;;;;;;29.76;18.47;99309.56;1760943;81;20963;-37
2022/05/02 10:27:11;;;;;;;4.75;3.62;;;;;;;29.76;18.47;99309.56;1761461;81;21457;-36
2022/05/02 10:30:11;;;;;;;5.92;3.00;;;;;;;30.09;17.41;99307.83;1750226;81;21023;-39
2022/05/02 10:32:56;;;;;;;6.60;3.15;;;;;;;30.40;16.15;99300.41;1761301;81;21022;-38
2022/05/02 10:35:25;;;;;;;5.67;2.58;;;;;;;30.40;17.06;99297.69;1761556;81;20971;-39
2022/05/02 10:38:04;;;;;;;6.58;2.85;;;;;;;31.04;17.00;99298.66;1761210;81;21030;-39
2022/05/02 10:40:42;;;;;;;3.65;2.70;;;;;;;31.56;15.25;99300.74;1761205;81;20994;-37
2022/05/02 10:43:14;;;;;;;3.58;3.17;;;;;;;31.12;15.98;99291.60;1761294;81;20984;-39
2022/05/02 10:45:41;;;;;;;5.53;2.67;;;;;;;31.76;14.92;99295.13;1755617;81;20995;-37
2022/05/02 10:48:12;;;;;;;5.37;3.00;;;;;;;30.54;15.64;99296.56;1755998;81;21361;-38
2022/05/02 10:50:38;;;;;;;4.00;2.75;;;;;;;28.69;16.23;99293.08;1745538;80;20959;-38
2022/05/02 10:53:47;;;;;;;5.95;3.30;;;;;;;27.63;16.89;99286.97;1756202;81;20988;-38
2022/05/02 10:56:35;;;;;;;5.03;3.30;;;;;;;26.83;17.34;99282.95;1752321;80;21418;-38
2022/05/02 10:59:04;;;;;;;3.20;2.90;;;;;;;26.85;17.74;99285.46;1756061;82;21453;-36
2022/05/02 11:02:06;;;;;;;6.30;3.10;;;;;;;27.89;16.64;99285.00;1728991;80;21003;-36
2022/05/02 11:05:05;;;;;;;3.90;3.10;;;;;;;27.64;16.97;99277.84;1681470;84;21496;-39
2022/05/02 11:07:59;;;;;;;4.58;3.10;;;;;;;26.96;17.29;99276.86;1677005;84;21088;-38
2022/05/02 11:10:47;;;;;;;3.47;3.17;;;;;;;26.55;18.06;99267.98;1684359;85;21480;-38
2022/05/02 11:13:43;;;;;;;4.65;2.75;;;;;;;26.64;18.20;99270.92;1689767;85;21007;-38
2022/05/02 11:16:43;;;;;;;4.35;2.65;;;;;;;28.02;17.25;99266.72;1689635;85;21490;-40
2022/05/02 11:22:24;;;;;;;7.80;2.87;;;;;;;28.21;16.92;99270.03;1671693;84;21051;-37
2022/05/02 11:25:07;;;;;;;5.10;2.55;;;;;;;27.06;17.38;99267.95;1666611;85;21015;-38
2022/05/02 11:27:38;;;;;;;3.90;2.62;;;;;;;26.37;17.83;99266.50;1668916;86;20987;-35
2022/05/02 11:30:12;;;;;;;5.97;2.90;;;;;;;24.97;18.42;99253.48;1668880;86;20975;-40
2022/05/02 11:33:12;;;;;;;4.42;3.30;;;;;;;24.84;19.06;99258.62;1668862;86;21484;-41
2022/05/02 11:35:40;;;;;;;3.77;3.00;;;;;;;23.67;20.16;99255.67;1668803;86;20998;-40
2022/05/02 11:38:40;;;;;;;5.60;3.27;;;;;;;23.80;19.74;99255.17;1668862;86;21006;-38
2022/05/02 11:41:22;;;;;;;6.47;3.25;;;;;;;23.04;20.81;99250.45;1692517;82;20963;-39
2022/05/02 11:43:49;;;;;;;4.15;2.87;;;;;;;22.88;21.06;99244.04;1754400;81;21599;-38
2022/05/02 11:46:24;;;;;;;7.28;3.20;;;;;;;22.46;21.67;99242.27;1753796;82;20995;-36
2022/05/02 11:49:37;;;;;;;4.70;3.05;;;;;;;22.32;22.57;99241.06;1753676;82;20986;-36
2022/05/02 11:52:08;;;;;;;4.20;2.90;;;;;;;22.29;22.02;99242.72;1753605;80;20995;-37
2022/05/02 11:54:42;;;;;;;4.45;2.80;;;;;;;22.03;21.99;99248.11;1753731;82;21500;-39
2022/05/02 11:57:36;;;;;;;3.87;2.70;;;;;;;21.92;22.11;99253.70;1753740;81;21453;-40
2022/05/02 12:00:11;;;;;;;5.22;3.25;;;;;;;21.68;22.26;99247.20;1753761;82;20948;-36
2022/05/02 12:02:56;;;;;;;11.22;3.17;;;;;;;20.98;23.74;99241.80;1753733;81;21080;-36
2022/05/02 12:05:31;;;;;;;6.72;4.42;;;;;;;20.89;23.48;99242.20;1753613;82;21022;-40
2022/05/02 12:08:04;;;;;;;11.12;5.00;;;;;;;20.22;26.85;99235.75;1753685;82;21460;-37
2022/05/02 12:10:41;;;;;;;11.85;5.33;;;;;;;20.49;25.23;99240.25;1753617;82;21476;-38
2022/05/02 12:13:18;;;;;;;9.30;5.17;;;;;;;20.26;26.25;99237.63;1753699;81;21527;-40
2022/05/02 12:16:02;;;;;;;8.73;5.25;;;;;;;20.06;26.77;99232.38;1753970;80;21038;-39
2022/05/02 12:18:52;;;;;;;9.38;5.30;;;;;;;20.16;26.71;99228.34;1753687;82;20971;-39
2022/05/02 12:21:31;;;;;;;7.55;5.10;;;;;;;19.98;27.14;99234.13;1753675;81;20983;-37
2022/05/02 12:23:55;;;;;;;11.65;5.08;;;;;;;19.99;27.28;99224.61;1753655;81;20936;-38
2022/05/02 12:26:23;;;;;;;10.10;5.45;;;;;;;20.12;27.20;99218.46;1753856;82;20983;-37
2022/05/02 12:28:52;;;;;;;11.88;5.30;;;;;;;20.13;27.41;99221.96;1753723;82;21006;-40
2022/05/02 12:31:26;;;;;;;9.05;5.30;;;;;;;20.19;27.21;99219.19;1753718;82;20967;-40
2022/05/02 12:34:09;;;;;;;9.93;5.40;;;;;;;19.96;29.01;99216.09;1753698;82;21457;-40